Time;durP1;ratioP1;P1;durP2;ratioP2;P2;SDS_P1;SDS_P2;PMS_P1;PMS_P2;Temp;Humidity;BMP_temperature;BMP_pressure;BME280_temperature;BME280_humidity;BME280_pressure;Samples;Min_cycle;Max_cycle;Signal;HPM_P1;HPM_P2
2021/12/04 00:01:27;;;;;;;28.90;20.50;;;;;;;-0.54;64.14;99599.79;107806;1290;22797;-80
2021/12/04 00:03:57;;;;;;;29.50;20.50;;;;;;;-0.53;64.21;99592.59;108041;1290;22429;-79
2021/12/04 00:06:29;;;;;;;34.20;21.40;;;;;;;-0.53;64.40;99591.05;107522;1295;22246;-80
2021/12/04 00:09:04;;;;;;;;;;;;;;;-0.54;64.29;99591.83;107549;1294;23868;-79
2021/12/04 00:11:36;;;;;;;29.10;19.90;;;;;;;-0.61;64.47;99587.54;107792;1290;23602;-79
2021/12/04 00:14:06;;;;;;;28.50;22.80;;;;;;;-0.64;64.49;99585.97;107438;1296;23026;-79
2021/12/04 00:16:36;;;;;;;23.20;19.50;;;;;;;-0.63;64.61;99582.80;107483;1291;22010;-79
2021/12/04 00:19:05;;;;;;;24.40;19.30;;;;;;;-0.62;64.61;99579.98;107455;1292;22045;-75
2021/12/04 00:21:34;;;;;;;22.20;17.90;;;;;;;-0.62;64.71;99574.27;107691;1292;23698;-74
2021/12/04 00:24:04;;;;;;;23.10;16.80;;;;;;;-0.64;64.61;99571.11;107779;1288;23637;-75
2021/12/04 00:26:33;;;;;;;23.90;15.90;;;;;;;-0.65;64.69;99566.74;108165;1288;23605;-75
2021/12/04 00:29:04;;;;;;;24.20;16.70;;;;;;;-0.64;64.73;99564.77;107986;1289;22044;-73
2021/12/04 00:31:34;;;;;;;21.20;15.00;;;;;;;-0.62;64.73;99569.05;108014;1288;22029;-74
2021/12/04 00:34:04;;;;;;;21.50;16.20;;;;;;;-0.60;64.99;99564.11;108234;1286;22314;-74
2021/12/04 00:36:59;;;;;;;21.40;15.40;;;;;;;-0.58;64.80;99562.39;108195;1284;22041;-74
2021/12/04 00:50:43;;;;;;;22.70;15.50;;;;;;;-0.57;64.95;99564.37;108254;1283;22021;-74
2021/12/04 00:53:12;;;;;;;20.10;15.50;;;;;;;-0.54;65.04;99563.83;108015;1288;23595;-74
2021/12/04 00:55:42;;;;;;;23.10;17.20;;;;;;;-0.51;64.98;99559.77;108210;1287;22028;-74
2021/12/04 00:58:11;;;;;;;24.70;16.80;;;;;;;-0.50;64.80;99559.83;108012;1288;23055;-74
2021/12/04 01:00:41;;;;;;;25.80;17.50;;;;;;;-0.48;64.91;99554.17;108185;1288;22048;-74
2021/12/04 01:03:10;;;;;;;27.10;20.00;;;;;;;-0.48;64.82;99558.30;108266;1287;23029;-74
2021/12/04 01:05:40;;;;;;;35.60;27.00;;;;;;;-0.48;64.82;99555.75;108018;1287;24431;-74
2021/12/04 01:08:10;;;;;;;50.40;41.50;;;;;;;-0.49;64.73;99550.98;108365;1281;23053;-74
2021/12/04 01:10:39;;;;;;;34.60;26.70;;;;;;;-0.50;64.68;99543.79;108553;1278;21991;-75
2021/12/04 01:13:12;;;;;;;35.70;25.00;;;;;;;-0.52;64.62;99541.66;108954;1275;22004;-74
2021/12/04 01:15:45;;;;;;;35.60;25.10;;;;;;;-0.54;64.65;99539.38;108486;1282;23608;-74
2021/12/04 01:18:14;;;;;;;31.10;21.60;;;;;;;-0.53;64.64;99535.65;108364;1281;219440;-74
2021/12/04 01:20:43;;;;;;;25.50;18.10;;;;;;;-0.51;64.71;99537.75;108402;1282;23138;-74
2021/12/04 01:23:12;;;;;;;23.90;17.80;;;;;;;-0.48;64.82;99537.38;108345;1282;21994;-74
2021/12/04 01:25:43;;;;;;;23.70;16.80;;;;;;;-0.46;64.79;99537.48;108446;1281;23721;-74
2021/12/04 01:28:12;;;;;;;21.00;16.10;;;;;;;-0.48;64.99;99531.67;108591;1281;24327;-74
2021/12/04 01:30:42;;;;;;;24.90;17.60;;;;;;;-0.48;65.12;99525.11;108445;1282;21993;-75
2021/12/04 01:33:11;;;;;;;25.50;19.00;;;;;;;-0.45;65.26;99522.67;108128;1276;23184;-74
2021/12/04 01:35:40;;;;;;;23.60;18.70;;;;;;;-0.44;65.23;99516.52;108465;1282;24546;-74
2021/12/04 01:38:10;;;;;;;26.60;18.60;;;;;;;-0.44;65.23;99512.74;108475;1280;22999;-74
2021/12/04 01:40:40;;;;;;;26.90;20.40;;;;;;;-0.43;65.30;99511.73;108397;1285;22069;-75
2021/12/04 01:43:09;;;;;;;23.90;18.30;;;;;;;-0.39;65.39;99509.58;108296;1285;22766;-74
2021/12/04 01:45:38;;;;;;;23.50;18.50;;;;;;;-0.35;65.38;99507.16;108112;1285;24315;-75
2021/12/04 01:48:08;;;;;;;25.20;18.40;;;;;;;-0.30;65.38;99502.14;107978;1285;23047;-75
2021/12/04 01:50:37;;;;;;;26.70;16.90;;;;;;;-0.26;65.44;99491.37;108357;1285;22044;-75
2021/12/04 01:53:06;;;;;;;19.70;15.40;;;;;;;-0.21;65.38;99485.48;108399;1281;22094;-75
2021/12/04 01:55:37;;;;;;;23.20;16.80;;;;;;;-0.15;65.42;99478.94;108426;1282;22091;-75
2021/12/04 01:58:07;;;;;;;20.10;15.90;;;;;;;-0.11;65.38;99476.55;108530;1278;21992;-75
2021/12/04 02:00:40;;;;;;;18.90;14.30;;;;;;;-0.10;65.37;99474.38;109197;1274;22040;-75
2021/12/04 02:03:13;;;;;;;18.50;15.80;;;;;;;-0.10;65.29;99475.06;109164;1274;23042;-75
2021/12/04 02:05:42;;;;;;;;;;;;;;;-0.09;65.44;99471.35;108863;1275;22956;-75
2021/12/04 02:08:17;;;;;;;18.20;14.10;;;;;;;-0.14;65.57;99463.62;108907;1275;21977;-75
2021/12/04 02:10:49;;;;;;;17.70;13.70;;;;;;;-0.12;65.51;99465.58;109028;1275;23052;-75
2021/12/04 02:13:18;;;;;;;17.20;13.80;;;;;;;-0.08;65.53;99456.43;109120;1275;21980;-75
2021/12/04 02:15:48;;;;;;;18.10;13.40;;;;;;;-0.04;65.52;99457.60;108671;1275;21970;-74
2021/12/04 02:18:20;;;;;;;17.60;13.80;;;;;;;0.03;65.39;99460.06;108982;1274;23673;-74
2021/12/04 02:20:50;;;;;;;15.40;11.60;;;;;;;0.07;65.28;99451.95;109205;1274;22281;-75
2021/12/04 02:23:20;;;;;;;14.30;10.80;;;;;;;0.11;65.31;99451.08;108890;1275;22729;-75
2021/12/04 02:25:49;;;;;;;18.90;12.70;;;;;;;0.16;65.15;99444.98;108991;1274;23116;-74
2021/12/04 02:28:19;;;;;;;15.80;11.70;;;;;;;0.20;65.06;99448.30;108851;1278;21986;-75
2021/12/04 02:30:48;;;;;;;15.40;12.00;;;;;;;0.22;65.00;99445.31;108437;1283;23610;-75
2021/12/04 02:33:18;;;;;;;18.40;11.90;;;;;;;0.22;64.85;99440.67;108379;1284;23772;-75
2021/12/04 02:35:52;;;;;;;20.20;12.60;;;;;;;0.24;64.81;99436.20;108287;1284;23593;-75
2021/12/04 02:38:25;;;;;;;14.50;10.70;;;;;;;0.28;64.76;99431.75;108433;1284;23131;-74
2021/12/04 02:41:00;;;;;;;19.10;11.80;;;;;;;0.28;64.61;99422.15;108425;1284;22017;-75
2021/12/04 02:43:34;;;;;;;13.70;10.40;;;;;;;0.29;64.47;99424.90;108409;1284;21973;-75
2021/12/04 02:46:04;;;;;;;13.60;10.50;;;;;;;0.29;64.34;99425.38;108457;1281;22159;-75
2021/12/04 02:48:33;;;;;;;15.30;11.40;;;;;;;0.33;64.39;99421.23;108606;1275;23473;-75
2021/12/04 02:51:02;;;;;;;11.90;9.90;;;;;;;0.37;64.22;99418.30;108472;1281;24383;-75
2021/12/04 02:53:31;;;;;;;12.70;9.50;;;;;;;0.43;64.17;99417.70;108629;1281;22929;-75
2021/12/04 02:56:01;;;;;;;14.30;10.10;;;;;;;0.44;63.92;99422.77;108059;1285;22166;-75
2021/12/04 02:58:34;;;;;;;16.00;12.10;;;;;;;0.45;63.93;99420.61;108331;1284;22637;-75
2021/12/04 03:01:04;;;;;;;14.00;11.20;;;;;;;0.47;63.78;99421.69;108357;1284;22220;-74
2021/12/04 03:03:34;;;;;;;13.40;11.70;;;;;;;0.46;63.64;99420.23;108034;1290;21998;-76
2021/12/04 03:06:03;;;;;;;13.50;11.20;;;;;;;0.45;63.65;99413.68;107830;1291;22057;-74
2021/12/04 03:08:33;;;;;;;16.10;11.60;;;;;;;0.48;63.71;99401.89;107824;1291;22109;-74
2021/12/04 03:11:02;;;;;;;13.20;10.50;;;;;;;0.50;63.74;99396.12;107859;1291;22007;-74
2021/12/04 03:13:31;;;;;;;16.30;12.10;;;;;;;0.52;63.50;99394.09;107410;1291;22006;-74
2021/12/04 03:16:01;;;;;;;15.20;11.60;;;;;;;0.52;63.42;99397.87;107941;1288;22001;-74
2021/12/04 03:18:31;;;;;;;14.50;10.50;;;;;;;0.52;63.41;99390.64;108227;1287;22001;-75
2021/12/04 03:21:03;;;;;;;15.70;11.40;;;;;;;0.50;63.36;99385.08;108354;1284;22979;-74
2021/12/04 03:23:40;;;;;;;16.20;12.00;;;;;;;0.49;63.37;99380.66;108170;1287;22021;-74
2021/12/04 03:26:10;;;;;;;14.80;10.80;;;;;;;0.46;63.36;99377.39;108223;1287;23975;-74
2021/12/04 03:28:40;;;;;;;13.60;10.60;;;;;;;0.42;63.30;99378.92;108216;1287;22062;-74
2021/12/04 03:31:14;;;;;;;14.70;10.70;;;;;;;0.41;63.35;99381.65;108060;1283;23399;-74
2021/12/04 03:42:08;;;;;;;18.50;13.70;;;;;;;0.47;63.36;99372.67;108263;1282;23817;-74
2021/12/04 03:44:38;;;;;;;16.30;13.30;;;;;;;0.48;63.25;99370.52;108561;1282;24376;-74
2021/12/04 03:47:09;;;;;;;17.40;13.40;;;;;;;0.48;63.15;99371.71;108191;1286;22186;-74
2021/12/04 03:49:39;;;;;;;15.50;11.70;;;;;;;0.45;63.03;99368.31;108055;1286;22006;-74
2021/12/04 03:52:09;;;;;;;16.60;12.40;;;;;;;0.43;63.02;99362.42;108055;1286;22014;-74
2021/12/04 03:54:39;;;;;;;15.80;11.80;;;;;;;0.38;62.87;99362.45;107885;1288;23660;-74
2021/12/04 03:57:12;;;;;;;17.40;13.40;;;;;;;0.35;62.93;99362.58;107982;1288;23065;-74
2021/12/04 03:59:47;;;;;;;17.00;12.20;;;;;;;0.36;62.97;99361.23;107824;1287;23050;-74
2021/12/04 04:02:18;;;;;;;19.30;13.70;;;;;;;0.39;62.95;99360.83;108041;1288;22352;-75
2021/12/04 04:04:47;;;;;;;17.00;12.60;;;;;;;0.44;62.95;99359.69;108070;1288;22073;-73
2021/12/04 04:07:16;;;;;;;17.20;12.60;;;;;;;0.45;62.66;99353.97;107679;1292;22078;-74
2021/12/04 04:09:45;;;;;;;17.20;12.60;;;;;;;0.43;62.47;99346.48;107086;1299;21993;-74
2021/12/04 04:12:17;;;;;;;15.80;12.00;;;;;;;0.43;62.58;99350.27;106827;1295;22004;-74
2021/12/04 04:14:47;;;;;;;16.00;12.40;;;;;;;0.43;62.39;99344.89;107618;1292;22021;-74
2021/12/04 04:17:16;;;;;;;16.70;11.30;;;;;;;0.39;62.29;99341.39;107657;1292;23761;-74
2021/12/04 04:19:45;;;;;;;14.30;10.30;;;;;;;0.39;62.39;99346.64;107671;1292;22097;-74
2021/12/04 04:22:14;;;;;;;13.00;10.90;;;;;;;0.39;62.27;99345.77;107712;1292;24447;-74
2021/12/04 04:24:44;;;;;;;15.50;10.10;;;;;;;0.38;62.15;99347.10;107456;1292;22011;-74
2021/12/04 04:27:13;;;;;;;14.30;10.80;;;;;;;0.37;62.06;99341.90;107975;1288;23090;-74
2021/12/04 04:29:42;;;;;;;14.40;10.40;;;;;;;0.39;62.15;99342.64;108061;1283;23054;-74
2021/12/04 04:32:11;;;;;;;12.70;10.20;;;;;;;0.42;62.11;99336.64;108621;1275;22061;-74
2021/12/04 04:34:41;;;;;;;12.80;10.80;;;;;;;0.44;62.06;99338.36;108792;1278;22929;-74
2021/12/04 05:20:48;;;;;;;15.20;10.10;;;;;;;0.37;61.73;99313.05;108094;1286;22513;-74
2021/12/04 05:23:18;;;;;;;19.00;10.70;;;;;;;0.42;61.81;99315.70;107539;1294;21995;-74
2021/12/04 05:25:50;;;;;;;13.70;10.10;;;;;;;0.47;61.66;99313.78;107578;1289;22006;-74
2021/12/04 05:28:20;;;;;;;14.20;10.60;;;;;;;0.49;61.62;99310.51;108204;1283;21988;-74
2021/12/04 05:30:50;;;;;;;19.10;12.00;;;;;;;0.51;61.50;99307.77;108632;1282;24050;-74
2021/12/04 05:33:19;;;;;;;21.60;12.20;;;;;;;0.52;61.44;99314.55;108532;1282;21993;-74
2021/12/04 05:35:48;;;;;;;16.00;11.50;;;;;;;0.56;61.48;99316.34;108445;1282;22213;-74
2021/12/04 05:38:19;;;;;;;18.70;12.80;;;;;;;0.57;61.28;99316.39;108463;1282;23624;-74
2021/12/04 05:40:49;;;;;;;22.00;13.30;;;;;;;0.60;61.21;99318.05;108271;1282;23602;-74
2021/12/04 05:43:22;;;;;;;17.70;13.20;;;;;;;0.60;61.02;99319.97;108526;1282;22827;-74
2021/12/04 05:46:03;;;;;;;19.30;13.00;;;;;;;0.58;60.79;99320.46;108347;1282;22861;-74
2021/12/04 05:48:55;;;;;;;17.90;12.60;;;;;;;0.57;60.72;99319.30;108468;1282;22225;-75
2021/12/04 05:54:31;;;;;;;18.10;12.10;;;;;;;0.62;60.66;99325.14;108486;1283;22056;-78
2021/12/04 05:57:12;;;;;;;15.80;11.10;;;;;;;0.61;60.47;99323.84;108091;1288;22455;-74
2021/12/04 05:59:50;;;;;;;21.20;13.30;;;;;;;0.57;60.41;99323.52;108074;1291;22061;-74
2021/12/04 06:02:24;;;;;;;18.20;12.50;;;;;;;0.54;60.44;99322.19;107825;1291;23067;-74
2021/12/04 06:04:55;;;;;;;17.00;12.70;;;;;;;0.51;60.41;99319.52;108096;1288;23045;-74
2021/12/04 06:07:25;;;;;;;21.00;13.90;;;;;;;0.49;60.52;99316.58;108309;1285;22082;-75
2021/12/04 06:10:10;;;;;;;18.60;13.80;;;;;;;0.47;60.47;99312.33;108429;1285;22000;-74
2021/12/04 06:12:44;;;;;;;22.10;15.20;;;;;;;0.45;60.48;99309.23;108290;1285;22029;-75
2021/12/04 06:15:13;;;;;;;19.10;14.10;;;;;;;0.41;60.49;99307.80;108470;1281;23047;-76
2021/12/04 06:17:43;;;;;;;20.80;14.40;;;;;;;0.38;60.54;99305.52;108476;1281;22097;-75
2021/12/04 06:23:00;;;;;;;15.30;11.90;;;;;;;0.37;60.72;99308.52;108102;1290;22049;-75
2021/12/04 06:25:29;;;;;;;18.90;14.70;;;;;;;0.35;60.80;99310.92;108192;1286;23176;-74
2021/12/04 06:27:58;;;;;;;20.60;14.10;;;;;;;0.36;60.90;99312.78;108421;1283;23040;-74
2021/12/04 06:30:28;;;;;;;18.40;13.90;;;;;;;0.34;60.89;99309.25;108140;1287;22906;-74
2021/12/04 06:32:57;;;;;;;20.60;16.20;;;;;;;0.32;60.98;99309.67;108113;1286;22866;-74
2021/12/04 06:35:27;;;;;;;23.90;16.30;;;;;;;0.31;61.11;99314.97;108293;1287;23724;-74
2021/12/04 06:37:56;;;;;;;24.80;17.90;;;;;;;0.29;61.18;99311.48;108171;1282;21996;-74
2021/12/04 06:40:26;;;;;;;26.90;18.00;;;;;;;0.28;61.27;99312.27;108465;1282;21978;-75
2021/12/04 06:42:59;;;;;;;27.70;18.70;;;;;;;0.27;61.25;99311.84;108459;1282;24345;-75
2021/12/04 06:45:32;;;;;;;27.80;19.40;;;;;;;0.24;61.21;99310.48;108492;1283;22100;-75
2021/12/04 06:48:07;;;;;;;42.30;23.20;;;;;;;0.22;61.29;99313.05;108708;1277;23040;-74
2021/12/04 06:53:32;;;;;;;;;;;;;;;0.27;61.44;99311.98;108678;1277;21961;-73
2021/12/04 06:56:05;;;;;;;43.10;21.00;;;;;;;0.23;61.67;99314.33;108472;1283;24329;-75
2021/12/04 06:58:36;;;;;;;35.40;22.80;;;;;;;0.28;61.73;99312.63;108265;1288;22224;-75
2021/12/04 07:01:08;;;;;;;47.80;22.60;;;;;;;0.32;61.76;99315.53;108372;1286;22010;-74
2021/12/04 07:03:39;;;;;;;28.20;22.60;;;;;;;0.35;61.76;99315.61;108181;1287;22040;-73
2021/12/04 07:06:08;;;;;;;32.10;22.70;;;;;;;0.37;61.84;99316.85;108303;1287;23129;-74
2021/12/04 07:08:37;;;;;;;29.20;22.80;;;;;;;0.39;61.83;99315.46;108340;1287;21997;-74
2021/12/04 07:11:07;;;;;;;33.50;24.00;;;;;;;0.39;61.84;99313.05;107768;1292;24502;-74
2021/12/04 07:13:37;;;;;;;42.30;28.90;;;;;;;0.42;61.88;99315.39;108281;1285;22488;-74
2021/12/04 07:16:08;;;;;;;40.60;28.60;;;;;;;0.50;62.05;99315.61;108222;1285;23822;-73
2021/12/04 07:18:38;;;;;;;29.70;23.40;;;;;;;0.59;61.99;99313.21;108413;1283;22820;-74
2021/12/04 07:21:08;;;;;;;28.10;22.10;;;;;;;0.68;62.02;99315.76;108561;1282;21995;-74
2021/12/04 07:23:38;;;;;;;26.00;19.60;;;;;;;0.74;61.78;99318.21;108364;1283;21992;-74
2021/12/04 07:26:08;;;;;;;27.60;18.80;;;;;;;0.76;61.59;99317.72;108435;1283;23131;-74
2021/12/04 07:28:37;;;;;;;31.50;21.40;;;;;;;0.79;61.58;99315.60;108490;1277;24083;-74
2021/12/04 07:31:08;;;;;;;63.50;41.50;;;;;;;0.80;61.54;99313.59;108906;1276;22452;-74
2021/12/04 07:33:37;;;;;;;122.60;81.30;;;;;;;0.83;61.50;99311.72;108847;1277;21979;-75
2021/12/04 07:36:06;;;;;;;106.90;71.50;;;;;;;0.86;61.49;99310.09;108681;1277;22202;-75
2021/12/04 07:38:38;;;;;;;67.90;41.90;;;;;;;0.86;61.35;99312.32;108569;1279;22953;-75
2021/12/04 07:41:08;;;;;;;60.80;35.00;;;;;;;0.87;61.28;99312.63;108202;1285;23105;-74
2021/12/04 07:43:37;;;;;;;57.30;31.80;;;;;;;0.86;61.30;99307.01;108335;1283;22447;-74
2021/12/04 07:46:11;;;;;;;51.50;30.20;;;;;;;0.88;61.32;99306.57;108162;1287;22002;-74
2021/12/04 07:48:42;;;;;;;55.90;30.90;;;;;;;0.88;61.19;99305.73;108171;1286;21999;-75
2021/12/04 07:51:14;;;;;;;45.40;27.30;;;;;;;0.91;61.16;99305.32;108049;1284;23624;-75
2021/12/04 07:53:47;;;;;;;60.90;34.50;;;;;;;0.96;61.13;99307.36;108102;1286;23841;-75
2021/12/04 07:56:17;;;;;;;59.50;37.10;;;;;;;1.00;61.15;99306.70;108061;1286;23614;-76
2021/12/04 07:58:46;;;;;;;59.40;35.70;;;;;;;1.05;61.16;99307.76;107988;1284;22120;-75
2021/12/04 08:01:15;;;;;;;44.50;28.30;;;;;;;1.09;61.01;99312.11;108345;1283;21983;-76
2021/12/04 08:03:47;;;;;;;51.90;30.90;;;;;;;1.11;61.10;99313.47;108020;1290;22402;-76
2021/12/04 08:06:16;;;;;;;97.80;63.30;;;;;;;1.14;61.10;99313.95;107965;1290;22052;-73
2021/12/04 08:08:46;;;;;;;81.80;55.40;;;;;;;1.17;61.12;99315.05;107897;1288;22001;-74
2021/12/04 08:11:15;;;;;;;75.20;49.80;;;;;;;1.19;61.04;99315.21;108142;1285;23593;-73
2021/12/04 08:13:44;;;;;;;63.60;43.10;;;;;;;1.21;61.12;99315.42;108397;1284;22111;-73
2021/12/04 08:16:14;;;;;;;51.00;33.80;;;;;;;1.27;61.25;99320.98;107899;1290;21990;-73
2021/12/04 08:18:43;;;;;;;48.60;29.60;;;;;;;1.30;60.96;99316.02;107984;1289;23656;-72
2021/12/04 08:21:12;;;;;;;59.80;33.00;;;;;;;1.28;60.81;99318.30;108053;1285;21991;-74
2021/12/04 08:23:41;;;;;;;56.80;33.30;;;;;;;1.30;61.08;99313.43;108329;1282;22018;-74
2021/12/04 08:26:10;;;;;;;48.00;30.30;;;;;;;1.34;61.01;99310.92;108449;1282;23043;-73
2021/12/04 08:28:40;;;;;;;51.40;30.60;;;;;;;1.40;61.00;99309.07;108510;1282;23049;-73
2021/12/04 08:31:10;;;;;;;44.40;30.60;;;;;;;1.45;60.97;99308.50;108556;1280;23843;-73
2021/12/04 08:33:41;;;;;;;36.40;25.90;;;;;;;1.48;60.90;99304.23;108636;1274;21982;-73
2021/12/04 08:36:10;;;;;;;58.40;36.60;;;;;;;1.49;60.82;99303.98;108988;1274;23678;-73
2021/12/04 08:38:46;;;;;;;62.90;41.00;;;;;;;1.54;61.09;99306.60;108395;1282;22051;-74
2021/12/04 08:41:18;;;;;;;49.50;33.20;;;;;;;1.62;61.08;99304.84;108401;1282;22355;-72
2021/12/04 08:43:48;;;;;;;77.30;48.20;;;;;;;1.66;60.93;99308.46;108492;1281;23080;-73
2021/12/04 08:46:20;;;;;;;48.80;31.50;;;;;;;1.68;60.82;99310.28;108426;1279;22021;-73
2021/12/04 08:48:54;;;;;;;48.50;33.40;;;;;;;1.70;60.73;99310.44;108594;1280;21989;-73
2021/12/04 08:51:24;;;;;;;51.60;36.30;;;;;;;1.72;60.66;99307.27;108522;1281;23596;-74
2021/12/04 08:53:53;;;;;;;40.60;28.90;;;;;;;1.79;60.76;99313.95;108430;1281;23678;-73
2021/12/04 08:56:23;;;;;;;44.60;31.10;;;;;;;1.84;60.43;99315.55;108598;1274;22975;-74
2021/12/04 08:58:53;;;;;;;40.50;28.50;;;;;;;1.89;60.43;99311.69;108851;1274;23570;-73
2021/12/04 09:01:30;;;;;;;77.60;49.60;;;;;;;1.92;60.22;99312.22;109165;1275;23894;-73
2021/12/04 09:04:25;;;;;;;68.20;54.80;;;;;;;1.92;60.06;99313.61;109148;1273;22488;-73
2021/12/04 09:06:58;;;;;;;46.30;34.00;;;;;;;1.95;59.92;99309.75;108959;1274;21973;-73
2021/12/04 09:09:28;;;;;;;55.90;37.20;;;;;;;1.94;59.57;99309.30;108946;1274;24294;-73
2021/12/04 09:12:18;;;;;;;37.90;28.50;;;;;;;1.94;59.57;99309.67;108939;1274;23070;-74
2021/12/04 09:14:49;;;;;;;43.10;32.30;;;;;;;1.95;59.64;99309.73;108866;1273;22036;-73
2021/12/04 09:17:19;;;;;;;41.10;30.30;;;;;;;2.05;59.74;99305.50;108907;1274;23618;-73
2021/12/04 09:19:50;;;;;;;44.80;33.40;;;;;;;2.12;59.46;99306.05;108594;1278;179397;-73
2021/12/04 09:22:28;;;;;;;36.00;29.30;;;;;;;2.16;59.17;99300.73;108361;1283;22116;-73
2021/12/04 09:25:10;;;;;;;34.60;25.20;;;;;;;2.21;59.14;99299.22;108039;1289;23018;-73
2021/12/04 10:21:12;;;;;;;106.50;49.80;;;;;;;2.50;57.73;99260.60;107498;1297;22036;-78
2021/12/04 10:35:21;;;;;;;56.80;38.60;;;;;;;2.45;57.59;99241.08;108063;1290;21980;-77
2021/12/04 10:37:59;;;;;;;53.30;37.60;;;;;;;2.53;58.00;99241.18;108404;1284;23042;-76
2021/12/04 10:40:37;;;;;;;49.00;35.70;;;;;;;2.56;57.65;99243.13;108339;1284;22457;-76
2021/12/04 10:43:16;;;;;;;48.20;34.80;;;;;;;2.57;57.60;99239.73;108368;1284;23131;-76
2021/12/04 10:45:52;;;;;;;49.80;38.20;;;;;;;2.59;57.74;99240.13;108463;1281;22331;-77
2021/12/04 10:48:28;;;;;;;53.70;41.00;;;;;;;2.61;57.85;99239.38;108470;1284;21992;-77
2021/12/04 10:51:33;;;;;;;65.60;46.50;;;;;;;2.66;58.02;99231.80;108531;1281;23608;-77
2021/12/04 10:53:57;;;;;;;84.10;61.20;;;;;;;2.74;58.20;99233.80;108785;1280;21980;-77
2021/12/04 10:59:52;;;;;;;63.60;50.00;;;;;;;2.85;58.05;99235.02;108369;1275;22018;-77
2021/12/04 11:02:28;;;;;;;48.20;37.00;;;;;;;2.85;57.59;99229.97;109069;1275;23700;-81
2021/12/04 11:05:41;;;;;;;56.80;42.10;;;;;;;2.81;57.29;99226.38;109092;1275;21999;-78
2021/12/04 11:25:40;;;;;;;54.20;39.40;;;;;;;2.93;56.48;99220.05;108867;1274;21979;-78
2021/12/04 11:45:25;;;;;;;63.50;43.90;;;;;;;3.02;56.47;99213.01;107959;1291;22055;-74
2021/12/04 11:48:03;;;;;;;50.20;35.60;;;;;;;3.00;56.05;99210.27;108170;1288;21995;-73
2021/12/04 11:50:37;;;;;;;59.80;44.50;;;;;;;2.95;56.07;99212.33;108255;1286;23272;-73
2021/12/04 11:53:16;;;;;;;47.80;36.80;;;;;;;2.99;56.35;99208.33;108529;1283;22065;-73
2021/12/04 11:55:50;;;;;;;47.30;36.30;;;;;;;3.06;56.51;99207.23;108430;1283;23598;-74
2021/12/04 11:58:33;;;;;;;52.90;42.60;;;;;;;3.12;56.27;99209.81;108533;1283;22030;-76
2021/12/04 12:01:09;;;;;;;56.40;44.70;;;;;;;3.14;56.10;99208.95;108449;1284;21994;-73
2021/12/04 12:03:56;;;;;;;37.60;29.00;;;;;;;3.11;55.61;99212.21;108456;1282;22038;-74
2021/12/04 12:06:42;;;;;;;43.60;34.10;;;;;;;3.02;55.55;99214.46;108523;1280;23738;-75
2021/12/04 12:09:19;;;;;;;37.20;29.30;;;;;;;2.99;55.65;99210.20;108931;1274;22009;-74
2021/12/04 12:11:55;;;;;;;39.40;29.00;;;;;;;2.94;55.33;99209.00;109011;1275;22023;-85
2021/12/04 12:14:56;;;;;;;45.40;31.50;;;;;;;2.88;55.44;99208.67;108901;1276;22929;-80
2021/12/04 12:17:44;;;;;;;51.60;37.60;;;;;;;2.87;55.60;99202.83;108662;1283;22023;-76
2021/12/04 12:20:29;;;;;;;50.30;34.90;;;;;;;2.89;55.71;99203.05;108467;1282;21991;-78
2021/12/04 12:23:07;;;;;;;52.00;34.60;;;;;;;2.92;55.81;99201.45;108527;1283;22062;-86
2021/12/04 12:31:58;;;;;;;50.10;35.00;;;;;;;3.00;55.92;99203.30;108427;1283;22764;-75
2021/12/04 12:37:23;;;;;;;42.90;30.80;;;;;;;3.02;55.53;99196.38;108431;1282;21985;-74
2021/12/04 12:39:57;;;;;;;38.60;29.10;;;;;;;3.01;55.53;99189.80;108428;1283;22001;-74
2021/12/04 12:42:34;;;;;;;39.40;28.60;;;;;;;2.97;55.39;99185.17;108504;1282;21987;-74
2021/12/04 12:45:27;;;;;;;36.30;25.20;;;;;;;2.95;55.45;99187.34;108394;1283;23877;-75
2021/12/04 12:48:10;;;;;;;42.40;31.00;;;;;;;2.85;55.24;99186.73;108418;1282;21977;-75
2021/12/04 12:50:44;;;;;;;35.50;26.80;;;;;;;2.74;55.42;99178.52;108656;1282;21989;-77
2021/12/04 12:53:27;;;;;;;41.80;30.80;;;;;;;2.71;55.74;99174.85;108436;1280;22471;-77
2021/12/04 12:56:10;;;;;;;35.80;27.10;;;;;;;2.71;55.93;99173.98;108629;1279;23055;-77
2021/12/04 12:58:54;;;;;;;44.40;32.70;;;;;;;2.68;55.95;99169.54;108674;1281;21984;-75
2021/12/04 13:13:43;;;;;;;35.00;25.90;;;;;;;2.60;56.49;99165.05;108431;1280;23074;-75
2021/12/04 13:16:18;;;;;;;33.00;23.00;;;;;;;2.53;56.51;99169.60;108665;1281;23599;-76
2021/12/04 13:18:59;;;;;;;24.30;20.30;;;;;;;2.42;56.81;99173.23;108692;1281;21978;-75
2021/12/04 13:21:33;;;;;;;30.90;23.60;;;;;;;2.38;57.32;99177.75;108368;1285;23094;-75
2021/12/04 13:24:03;;;;;;;24.80;20.60;;;;;;;2.37;57.74;99177.86;108276;1285;23036;-75
2021/12/04 13:26:36;;;;;;;30.60;20.30;;;;;;;2.40;58.13;99179.89;108384;1285;23117;-74
2021/12/04 13:29:08;;;;;;;31.10;24.80;;;;;;;2.34;58.58;99180.94;108212;1287;23696;-75
2021/12/04 13:31:38;;;;;;;34.30;25.40;;;;;;;2.22;59.00;99180.61;108223;1281;21976;-75
2021/12/04 13:34:12;;;;;;;35.90;28.30;;;;;;;2.20;59.70;99181.02;108506;1282;23060;-76
2021/12/04 13:36:45;;;;;;;39.70;30.80;;;;;;;2.25;60.44;99183.32;108373;1283;23043;-75
2021/12/04 13:39:18;;;;;;;28.60;22.50;;;;;;;2.30;60.98;99192.20;108576;1277;23602;-75
2021/12/04 13:41:52;;;;;;;30.90;23.90;;;;;;;2.25;61.06;99179.45;109018;1275;23600;-76
2021/12/04 13:44:28;;;;;;;31.40;25.30;;;;;;;2.20;61.47;99177.17;108947;1277;22294;-76
2021/12/04 13:47:04;;;;;;;34.50;29.70;;;;;;;2.20;62.18;99178.80;108812;1277;22418;-76
2021/12/04 13:49:56;;;;;;;44.90;38.80;;;;;;;2.22;62.72;99181.52;108831;1277;21995;-76
2021/12/04 13:52:31;;;;;;;50.50;39.50;;;;;;;2.25;63.12;99176.20;108816;1277;22018;-76
2021/12/04 13:55:11;;;;;;;36.90;32.20;;;;;;;2.29;63.50;99174.97;108709;1276;22087;-75
2021/12/04 13:57:41;;;;;;;26.90;23.50;;;;;;;2.27;63.67;99173.71;108385;1283;23132;-75
2021/12/04 14:00:16;;;;;;;35.10;27.90;;;;;;;2.22;64.00;99165.70;108395;1283;22003;-75
2021/12/04 14:02:45;;;;;;;30.70;25.20;;;;;;;2.16;64.36;99163.29;108374;1283;23032;-75
2021/12/04 14:05:22;;;;;;;30.50;24.10;;;;;;;2.10;64.67;99157.98;108375;1285;23105;-75
2021/12/04 14:07:56;;;;;;;30.70;24.50;;;;;;;2.06;65.09;99159.59;108374;1283;22031;-75
2021/12/04 14:10:32;;;;;;;35.70;27.80;;;;;;;2.00;65.38;99161.71;108492;1283;23141;-75
2021/12/04 14:13:04;;;;;;;35.00;28.00;;;;;;;1.98;65.96;99162.02;108355;1283;23863;-75
2021/12/04 14:15:34;;;;;;;45.10;30.20;;;;;;;1.99;66.26;99159.23;108495;1277;21976;-75
2021/12/04 14:18:10;;;;;;;40.60;30.70;;;;;;;1.87;66.21;99161.09;108895;1277;23125;-75
2021/12/04 14:20:42;;;;;;;38.20;31.40;;;;;;;1.80;66.68;99158.67;108899;1277;23072;-75
2021/12/04 14:23:12;;;;;;;39.70;32.80;;;;;;;1.73;67.10;99157.53;108835;1278;21978;-74
2021/12/04 14:25:44;;;;;;;41.00;36.40;;;;;;;1.70;67.34;99160.14;108699;1278;23585;-75
2021/12/04 14:28:16;;;;;;;;;;;;;;;1.66;67.60;99163.03;108845;1277;23560;-75
2021/12/04 14:30:47;;;;;;;33.40;27.80;;;;;;;1.51;67.83;99162.19;108839;1278;21973;-75
2021/12/04 14:33:24;;;;;;;33.00;29.40;;;;;;;1.45;68.17;99166.21;108877;1277;21990;-74
2021/12/04 14:35:55;;;;;;;38.00;33.60;;;;;;;1.42;68.39;99163.51;108732;1278;22854;-75
2021/12/04 14:38:27;;;;;;;37.30;33.30;;;;;;;1.39;68.76;99164.80;108907;1277;22029;-75
2021/12/04 14:41:07;;;;;;;35.40;30.00;;;;;;;1.39;68.96;99163.27;108777;1276;22025;-75
2021/12/04 14:43:39;;;;;;;41.50;37.00;;;;;;;1.36;69.20;99164.84;108810;1276;23586;-75
2021/12/04 14:46:22;;;;;;;34.10;30.50;;;;;;;1.29;69.32;99161.23;108875;1277;21969;-75
2021/12/04 14:48:56;;;;;;;50.30;44.60;;;;;;;1.19;69.79;99150.45;108830;1277;22086;-75
2021/12/04 14:51:26;;;;;;;53.40;42.90;;;;;;;1.13;70.10;99146.02;109046;1276;22012;-75
2021/12/04 14:53:57;;;;;;;46.30;38.30;;;;;;;1.10;70.42;99144.70;109017;1276;23083;-75
2021/12/04 14:56:29;;;;;;;74.80;54.70;;;;;;;1.07;70.63;99146.34;108752;1277;22161;-75
2021/12/04 14:59:00;;;;;;;93.20;63.20;;;;;;;1.02;70.82;99142.67;108901;1276;23128;-76